createdAt,value
2018-10-21T00:03:10.853Z,15.50
2018-10-21T00:07:14.337Z,17.13
2018-10-21T00:11:17.895Z,16.70
2018-10-21T00:15:21.497Z,16.83
2018-10-21T00:19:25.725Z,17.30
2018-10-21T00:23:29.279Z,18.07
2018-10-21T00:27:32.805Z,17.17
2018-10-21T00:31:36.293Z,18.80
2018-10-21T00:35:41.109Z,18.03
2018-10-21T00:39:44.847Z,19.10
2018-10-21T00:43:48.509Z,19.27
2018-10-21T00:47:52.110Z,19.30
2018-10-21T00:51:55.710Z,17.13
2018-10-21T00:55:59.257Z,17.53
2018-10-21T01:00:02.725Z,17.63
2018-10-21T01:04:06.839Z,17.00
2018-10-21T01:08:10.492Z,18.20
2018-10-21T01:12:13.977Z,17.57
2018-10-21T01:16:17.804Z,19.17
2018-10-21T01:20:21.494Z,18.80
2018-10-21T01:24:25.898Z,19.50
2018-10-21T01:28:29.603Z,19.67
2018-10-21T01:32:33.344Z,20.20
2018-10-21T01:36:37.061Z,19.60
2018-10-21T01:40:43.757Z,20.50
2018-10-21T01:44:47.385Z,19.37
2018-10-21T01:48:51.835Z,20.50
2018-10-21T01:52:57.495Z,19.47
2018-10-21T01:57:01.260Z,19.57
2018-10-21T02:01:04.969Z,19.80
2018-10-21T02:05:08.448Z,20.70
2018-10-21T02:09:13.956Z,20.67
2018-10-21T02:13:17.667Z,22.17
2018-10-21T02:17:21.254Z,21.63
2018-10-21T02:21:24.951Z,19.43
2018-10-21T02:25:28.546Z,21.03
2018-10-21T02:29:32.158Z,18.67
2018-10-21T02:33:35.873Z,19.57
2018-10-21T02:37:39.582Z,20.20
2018-10-21T02:41:55.806Z,21.87
2018-10-21T02:45:59.473Z,23.27
2018-10-21T02:50:03.034Z,22.33
2018-10-21T02:54:07.117Z,22.37
2018-10-21T02:58:10.704Z,21.83
2018-10-21T03:02:14.245Z,20.40
2018-10-21T03:06:17.939Z,20.07
2018-10-21T03:10:21.591Z,19.43
2018-10-21T03:14:25.105Z,20.80
2018-10-21T03:18:28.727Z,20.80
2018-10-21T03:22:32.250Z,23.97
2018-10-21T03:26:35.953Z,20.30
2018-10-21T03:30:39.701Z,21.93
2018-10-21T03:34:43.241Z,20.90
2018-10-21T03:38:47.089Z,21.47
2018-10-21T03:42:50.705Z,20.50
2018-10-21T03:46:54.455Z,21.87
2018-10-21T03:50:58.050Z,23.17
2018-10-21T03:55:01.657Z,21.97
2018-10-21T03:59:05.407Z,22.40
2018-10-21T04:03:09.322Z,24.20
2018-10-21T04:07:13.220Z,23.27
2018-10-21T04:11:16.789Z,25.07
2018-10-21T04:15:20.404Z,24.13
2018-10-21T04:19:24.053Z,28.70
2018-10-21T04:23:28.077Z,25.33
2018-10-21T04:27:31.660Z,25.67
2018-10-21T04:31:35.247Z,25.00
2018-10-21T04:35:39.036Z,25.27
2018-10-21T04:39:53.832Z,28.47
2018-10-21T04:43:57.507Z,26.27
2018-10-21T04:48:01.057Z,29.13
2018-10-21T04:52:04.682Z,28.83
2018-10-21T04:56:08.207Z,28.17
2018-10-21T05:00:14.681Z,29.73
2018-10-21T05:04:18.352Z,29.13
2018-10-21T05:08:21.808Z,28.87
2018-10-21T05:12:25.326Z,28.30
2018-10-21T05:16:28.847Z,29.53
2018-10-21T05:20:32.530Z,29.00
2018-10-21T05:24:36.515Z,29.37
2018-10-21T05:28:41.031Z,28.57
2018-10-21T05:32:44.621Z,28.67
2018-10-21T05:36:48.299Z,28.23
2018-10-21T05:40:51.877Z,27.83
2018-10-21T05:44:55.433Z,28.53
2018-10-21T05:48:59.158Z,30.30
2018-10-21T05:53:03.269Z,30.63
2018-10-21T05:57:06.902Z,29.83
2018-10-21T06:01:10.550Z,29.77
2018-10-21T06:05:32.907Z,29.23
2018-10-21T06:09:36.635Z,30.27
2018-10-21T06:13:40.516Z,30.73
2018-10-21T06:17:44.230Z,28.97
2018-10-21T06:21:48.280Z,32.70
2018-10-21T06:25:52.685Z,32.60
2018-10-21T06:29:56.639Z,31.67
2018-10-21T06:34:00.877Z,32.30
2018-10-21T06:38:04.873Z,32.07
2018-10-21T06:42:08.809Z,40.58
2018-10-21T06:46:12.619Z,35.23
2018-10-21T06:50:18.211Z,33.47
2018-10-21T06:54:22.046Z,34.67
2018-10-21T06:58:26.117Z,33.37
2018-10-21T07:02:30.383Z,30.90
2018-10-21T07:06:34.736Z,33.13
2018-10-21T07:10:38.545Z,34.00
2018-10-21T07:14:48.909Z,32.70
2018-10-21T07:18:53.357Z,33.27
2018-10-21T07:22:57.156Z,34.07
2018-10-21T07:27:00.992Z,35.60
2018-10-21T07:31:04.901Z,33.47
2018-10-21T07:35:10.683Z,33.53
2018-10-21T07:39:14.713Z,34.43
2018-10-21T07:43:18.516Z,32.53
2018-10-21T07:47:22.101Z,34.20
2018-10-21T07:51:25.770Z,32.30
2018-10-21T07:55:29.780Z,30.43
2018-10-21T07:59:33.438Z,32.40
2018-10-21T08:03:37.244Z,32.40
2018-10-21T08:07:52.177Z,31.30
2018-10-21T08:11:56.072Z,31.63
2018-10-21T08:15:59.828Z,30.27
2018-10-21T08:20:03.995Z,31.10
2018-10-21T08:24:07.634Z,32.67
2018-10-21T08:28:11.223Z,38.33
2018-10-21T08:32:14.832Z,36.50
2018-10-21T08:36:18.326Z,29.57
2018-10-21T08:40:22.098Z,28.10
2018-10-21T08:44:25.832Z,28.43
2018-10-21T08:48:29.513Z,28.93
2018-10-21T08:52:33.122Z,29.77
2018-10-21T08:56:36.745Z,28.80
2018-10-21T09:00:40.235Z,27.37
2018-10-21T09:04:43.945Z,27.27
2018-10-21T09:08:52.020Z,27.93
2018-10-21T09:12:55.899Z,27.07
2018-10-21T09:16:59.737Z,27.13
2018-10-21T09:21:03.436Z,26.67
2018-10-21T09:25:07.849Z,26.70
2018-10-21T09:29:11.402Z,27.67
2018-10-21T09:33:15.104Z,26.67
2018-10-21T09:37:18.644Z,26.17
2018-10-21T09:41:22.299Z,26.53
2018-10-21T09:45:25.876Z,26.83
2018-10-21T09:49:29.609Z,24.97
2018-10-21T09:53:33.461Z,26.17
2018-10-21T09:57:37.517Z,25.30
2018-10-21T10:01:46.966Z,25.10
2018-10-21T10:05:53.330Z,25.73
2018-10-21T10:09:57.661Z,25.43
2018-10-21T10:14:01.320Z,24.50
2018-10-21T10:18:05.029Z,24.63
2018-10-21T10:22:08.621Z,24.00
2018-10-21T10:26:12.149Z,24.13
2018-10-21T10:30:15.943Z,23.33
2018-10-21T10:34:19.517Z,24.27
2018-10-21T10:38:23.247Z,24.33
2018-10-21T10:42:30.211Z,23.17
2018-10-21T10:46:34.119Z,21.97
2018-10-21T10:50:38.439Z,23.00
2018-10-21T10:54:42.609Z,23.17
2018-10-21T10:58:47.447Z,21.17
2018-10-21T11:02:51.680Z,21.63
2018-10-21T11:06:56.251Z,22.07
2018-10-21T11:15:08.416Z,23.07
2018-10-21T11:19:12.105Z,21.50
2018-10-21T11:23:15.746Z,21.23
2018-10-21T11:27:19.361Z,22.07
2018-10-21T11:31:23.873Z,22.77
2018-10-21T11:35:27.662Z,20.80
2018-10-21T11:39:31.208Z,22.63
2018-10-21T11:43:34.953Z,21.27
2018-10-21T11:47:38.775Z,21.50
2018-10-21T11:51:42.404Z,19.73
2018-10-21T11:55:45.956Z,17.70
2018-10-21T11:59:49.792Z,17.17
2018-10-21T12:03:53.832Z,17.73
2018-10-21T12:07:57.664Z,16.93
2018-10-21T12:12:01.494Z,16.27
2018-10-21T12:16:05.533Z,16.97
2018-10-21T12:20:09.177Z,17.33
2018-10-21T12:24:14.157Z,14.87
2018-10-21T12:28:18.060Z,15.43
2018-10-21T12:32:21.640Z,15.00
2018-10-21T12:36:25.450Z,16.10
2018-10-21T12:40:29.196Z,14.83
2018-10-21T12:44:32.819Z,12.57
2018-10-21T12:48:37.150Z,14.33
2018-10-21T12:52:41.853Z,9.40
2018-10-21T12:56:45.512Z,12.37
2018-10-21T13:00:49.433Z,11.13
2018-10-21T13:04:53.575Z,11.80
2018-10-21T13:08:57.409Z,12.40
2018-10-21T13:13:01.373Z,12.37
2018-10-21T13:17:05.157Z,12.70
2018-10-21T13:21:09.024Z,11.50
2018-10-21T13:25:12.875Z,9.50
2018-10-21T13:29:16.643Z,9.63
2018-10-21T13:33:20.531Z,11.03
2018-10-21T13:37:25.081Z,9.60
2018-10-21T13:41:28.776Z,9.60
2018-10-21T13:45:32.432Z,9.80
2018-10-21T13:49:36.413Z,9.20
2018-10-21T13:53:40.052Z,9.43
2018-10-21T13:57:43.855Z,9.87
2018-10-21T14:01:47.827Z,9.20
2018-10-21T14:05:51.376Z,10.83
2018-10-21T14:09:55.039Z,10.37
2018-10-21T14:13:58.915Z,10.90
2018-10-21T14:18:02.484Z,10.93
2018-10-21T14:22:06.221Z,11.73
2018-10-21T14:26:10.828Z,11.77
2018-10-21T14:30:14.596Z,11.37
2018-10-21T14:34:18.166Z,12.27
2018-10-21T14:38:22.031Z,11.13
2018-10-21T14:42:26.114Z,10.60
2018-10-21T14:46:37.870Z,11.33
2018-10-21T14:50:41.542Z,11.10
2018-10-21T14:54:45.393Z,10.83
2018-10-21T14:58:49.737Z,10.30
2018-10-21T15:02:53.624Z,10.30
2018-10-21T15:06:59.219Z,10.60
2018-10-21T15:11:02.942Z,10.83
2018-10-21T15:15:07.381Z,9.93
2018-10-21T15:19:11.079Z,10.07
2018-10-21T15:23:14.912Z,10.03
2018-10-21T15:27:18.586Z,10.23
2018-10-21T15:31:22.219Z,9.83
2018-10-21T15:35:26.675Z,10.10
2018-10-21T15:39:30.266Z,9.77
2018-10-21T15:43:33.953Z,10.30
2018-10-21T15:47:37.629Z,10.87
2018-10-21T15:51:42.261Z,13.63
2018-10-21T15:55:45.965Z,12.57
2018-10-21T15:59:49.623Z,11.30
2018-10-21T16:03:53.521Z,11.07
2018-10-21T16:07:57.278Z,10.17
2018-10-21T16:12:01.143Z,10.07
2018-10-21T16:16:05.194Z,9.73
2018-10-21T16:20:08.921Z,8.80
2018-10-21T16:24:12.698Z,8.73
2018-10-21T16:28:16.212Z,9.30
2018-10-21T16:32:20.035Z,10.78
2018-10-21T16:36:23.446Z,9.30
2018-10-21T16:40:26.980Z,9.40
2018-10-21T16:44:31.192Z,10.37
2018-10-21T16:48:34.860Z,9.73
2018-10-21T16:52:38.401Z,9.50
2018-10-21T16:56:41.868Z,9.93
2018-10-21T17:00:45.903Z,10.20
2018-10-21T17:04:49.284Z,10.40
2018-10-21T17:08:52.895Z,9.93
2018-10-21T17:12:57.400Z,10.90
2018-10-21T17:17:00.911Z,10.83
2018-10-21T17:21:04.819Z,11.47
2018-10-21T17:25:09.738Z,13.03
2018-10-21T17:29:15.258Z,18.73
2018-10-21T17:33:18.969Z,20.47
2018-10-21T17:37:22.764Z,21.40
2018-10-21T17:41:26.504Z,21.47
2018-10-21T17:45:31.607Z,18.13
2018-10-21T17:49:35.312Z,17.37
2018-10-21T17:53:39.081Z,14.50
2018-10-21T17:57:42.932Z,12.57
2018-10-21T18:01:46.642Z,11.17
2018-10-21T18:05:50.438Z,10.43
2018-10-21T18:09:54.496Z,9.77
2018-10-21T18:13:58.536Z,10.23
2018-10-21T18:18:02.719Z,10.57
2018-10-21T18:22:06.933Z,10.57
2018-10-21T18:26:10.473Z,9.17
2018-10-21T18:30:13.940Z,9.60
2018-10-21T18:34:17.787Z,9.20
2018-10-21T18:38:21.261Z,9.57
2018-10-21T18:42:25.423Z,9.77
2018-10-21T18:46:29.202Z,8.03
2018-10-21T18:50:32.755Z,8.03
2018-10-21T18:54:36.362Z,7.73
2018-10-21T18:58:40.082Z,7.40
2018-10-21T19:02:43.724Z,7.60
2018-10-21T19:06:47.250Z,7.60
2018-10-21T19:10:50.803Z,7.60
2018-10-21T19:14:54.456Z,7.53
2018-10-21T19:18:58.109Z,8.67
2018-10-21T19:23:01.676Z,8.23
2018-10-21T19:27:05.546Z,9.30
2018-10-21T19:31:09.035Z,8.27
2018-10-21T19:35:13.606Z,8.90
2018-10-21T19:39:17.250Z,8.07
2018-10-21T19:43:20.863Z,9.23
2018-10-21T19:47:24.330Z,9.40
2018-10-21T19:51:27.950Z,11.00
2018-10-21T19:55:31.490Z,11.07
2018-10-21T19:59:35.011Z,10.63
2018-10-21T20:03:38.639Z,11.23
2018-10-21T20:07:42.153Z,12.07
2018-10-21T20:11:45.700Z,12.03
2018-10-21T20:15:49.369Z,10.80
2018-10-21T20:19:52.988Z,12.57
2018-10-21T20:23:56.866Z,11.87
2018-10-21T20:28:00.479Z,11.27
2018-10-21T20:32:04.145Z,10.60
2018-10-21T20:36:07.650Z,11.17
2018-10-21T20:40:11.480Z,11.90
2018-10-21T20:44:15.041Z,11.30
2018-10-21T20:48:18.493Z,10.00
2018-10-21T20:52:21.932Z,10.60
2018-10-21T20:56:25.470Z,11.93
2018-10-21T21:00:29.090Z,12.30
2018-10-21T21:04:32.624Z,14.10
2018-10-21T21:08:36.264Z,12.30
2018-10-21T21:12:39.772Z,11.17
2018-10-21T21:16:44.317Z,12.50
2018-10-21T21:20:48.050Z,13.93
2018-10-21T21:24:51.882Z,14.20
2018-10-21T21:28:55.845Z,13.13
2018-10-21T21:32:59.392Z,15.97
2018-10-21T21:37:02.949Z,13.43
2018-10-21T21:41:06.567Z,13.80
2018-10-21T21:45:10.314Z,14.00
2018-10-21T21:49:14.436Z,13.50
2018-10-21T21:53:18.028Z,13.00
2018-10-21T21:57:21.569Z,12.93
2018-10-21T22:01:25.210Z,13.73
2018-10-21T22:05:28.769Z,14.50
2018-10-21T22:09:33.542Z,15.70
2018-10-21T22:13:37.076Z,14.00
2018-10-21T22:17:41.465Z,14.27
2018-10-21T22:21:44.946Z,14.80
2018-10-21T22:25:48.471Z,14.00
2018-10-21T22:29:52.814Z,14.93
2018-10-21T22:33:56.364Z,15.57
2018-10-21T22:38:00.117Z,16.20
2018-10-21T22:42:03.591Z,16.63
2018-10-21T22:46:07.086Z,16.63
2018-10-21T22:50:11.805Z,17.03
2018-10-21T22:54:15.331Z,17.00
2018-10-21T22:58:18.825Z,17.80
2018-10-21T23:02:22.459Z,16.63
2018-10-21T23:06:25.964Z,16.50
2018-10-21T23:10:29.483Z,17.07
2018-10-21T23:14:33.030Z,16.83
2018-10-21T23:18:36.692Z,17.17
2018-10-21T23:22:40.266Z,16.60
2018-10-21T23:26:43.752Z,17.33
2018-10-21T23:30:47.202Z,18.17
2018-10-21T23:34:50.718Z,18.27
2018-10-21T23:38:54.288Z,17.50
2018-10-21T23:42:57.949Z,17.80
2018-10-21T23:47:01.515Z,17.43
2018-10-21T23:51:05.007Z,18.40
2018-10-21T23:55:08.698Z,16.90
2018-10-21T23:59:12.663Z,16.73
